Time;durP1;ratioP1;P1;durP2;ratioP2;P2;SDS_P1;SDS_P2;PMS_P1;PMS_P2;Temp;Humidity;BMP_temperature;BMP_pressure;BME280_temperature;BME280_humidity;BME280_pressure;Samples;Min_cycle;Max_cycle;Signal;HPM_P1;HPM_P2
2023/05/14 00:01:55;;;;;;;4.77;2.73;;;12.20;98.00;;;;;;5035483;28;20954;-62
2023/05/14 00:04:22;;;;;;;4.93;3.13;;;12.20;98.00;;;;;;5035640;28;20455;-63
2023/05/14 00:06:49;;;;;;;8.30;3.30;;;12.20;98.00;;;;;;5035411;28;20463;-63
2023/05/14 00:09:23;;;;;;;8.13;3.73;;;12.20;98.00;;;;;;5035403;28;20457;-63
2023/05/14 00:11:50;;;;;;;6.97;3.40;;;12.30;98.00;;;;;;5035564;28;20459;-62
2023/05/14 00:14:17;;;;;;;5.27;3.03;;;12.50;98.00;;;;;;5035347;28;20456;-63
2023/05/14 00:16:44;;;;;;;6.67;3.57;;;12.70;98.00;;;;;;5035352;28;20487;-63
2023/05/14 00:19:11;;;;;;;5.57;2.70;;;12.70;98.00;;;;;;5035469;28;20992;-62
2023/05/14 00:21:38;;;;;;;5.43;3.20;;;12.90;98.00;;;;;;5035415;28;20460;-62
2023/05/14 00:24:06;;;;;;;6.47;3.13;;;12.90;98.00;;;;;;5017686;28;20453;-64
2023/05/14 00:26:36;;;;;;;5.83;3.30;;;12.80;98.00;;;;;;5017816;28;20464;-64
2023/05/14 00:29:03;;;;;;;6.03;3.43;;;12.60;98.00;;;;;;5017957;28;20603;-63
2023/05/14 00:31:33;;;;;;;6.03;3.30;;;12.50;98.00;;;;;;5035248;28;20455;-62
2023/05/14 00:34:01;;;;;;;7.73;3.67;;;12.50;98.00;;;;;;5034921;28;20558;-65
2023/05/14 00:36:28;;;;;;;5.30;3.30;;;12.50;98.00;;;;;;5034936;28;20484;-63
2023/05/14 00:38:56;;;;;;;4.57;3.17;;;12.30;98.00;;;;;;5017179;28;20533;-63
2023/05/14 00:41:23;;;;;;;5.80;3.23;;;12.20;98.00;;;;;;5017558;28;20472;-63
2023/05/14 00:43:53;;;;;;;7.73;3.43;;;12.20;98.00;;;;;;5034883;28;20465;-62
2023/05/14 00:46:20;;;;;;;7.63;3.90;;;12.30;98.00;;;;;;5034630;28;20461;-63
2023/05/14 00:48:47;;;;;;;5.63;3.33;;;12.40;98.00;;;;;;5034718;28;20784;-64
2023/05/14 00:51:14;;;;;;;6.73;3.70;;;12.40;98.00;;;;;;5034548;28;20456;-63
2023/05/14 00:53:41;;;;;;;5.20;3.30;;;12.50;98.00;;;;;;5034655;28;20812;-63
2023/05/14 00:56:09;;;;;;;8.67;4.17;;;12.40;98.00;;;;;;5034408;28;20467;-63
2023/05/14 00:58:36;;;;;;;6.13;3.97;;;12.30;98.00;;;;;;5034692;28;20827;-63
2023/05/14 01:01:05;;;;;;;8.13;4.10;;;12.20;98.00;;;;;;5034263;28;20452;-63
2023/05/14 01:03:32;;;;;;;8.70;4.27;;;12.10;98.00;;;;;;5034559;28;20505;-63
2023/05/14 01:06:08;;;;;;;6.60;3.40;;;12.10;98.00;;;;;;5034406;28;20474;-63
2023/05/14 01:08:46;;;;;;;6.60;3.60;;;12.10;98.00;;;;;;5016692;28;20461;-64
2023/05/14 01:11:20;;;;;;;4.73;3.10;;;12.40;98.00;;;;;;5016780;28;20467;-62
2023/05/14 01:13:57;;;;;;;6.67;3.40;;;12.50;98.00;;;;;;5034521;28;20554;-63
2023/05/14 01:16:28;;;;;;;6.67;3.13;;;12.50;98.00;;;;;;5034385;28;20859;-62
2023/05/14 01:18:58;;;;;;;7.57;3.47;;;12.50;98.00;;;;;;5034440;28;20461;-63
2023/05/14 01:21:36;;;;;;;7.80;4.00;;;12.50;98.00;;;;;;5017204;28;20533;-63
2023/05/14 01:24:03;;;;;;;5.90;3.23;;;12.50;98.00;;;;;;5034359;28;20465;-64
2023/05/14 01:26:31;;;;;;;8.40;4.03;;;12.30;98.00;;;;;;5034363;28;20452;-62
2023/05/14 01:29:08;;;;;;;6.57;3.57;;;12.10;98.00;;;;;;5034018;28;20457;-63
2023/05/14 01:31:37;;;;;;;5.83;3.07;;;12.00;98.00;;;;;;5017721;28;20484;-62
2023/05/14 01:34:06;;;;;;;5.77;3.20;;;11.80;98.00;;;;;;5033852;28;20460;-62
2023/05/14 01:36:38;;;;;;;5.53;3.10;;;11.80;98.00;;;;;;5033790;28;20505;-62
2023/05/14 01:39:08;;;;;;;5.30;3.20;;;11.80;98.00;;;;;;5033611;28;20472;-63
2023/05/14 01:41:36;;;;;;;4.30;3.10;;;11.90;98.00;;;;;;5033647;28;20485;-62
2023/05/14 01:44:04;;;;;;;4.27;2.90;;;11.90;98.00;;;;;;5015921;28;20961;-62
2023/05/14 01:46:35;;;;;;;7.67;3.70;;;11.80;98.00;;;;;;5033341;28;21157;-63
2023/05/14 01:49:02;;;;;;;5.80;3.47;;;11.80;98.00;;;;;;5033594;28;20451;-63
2023/05/14 01:51:29;;;;;;;5.40;3.27;;;11.80;98.00;;;;;;5033391;28;20463;-63
2023/05/14 01:53:58;;;;;;;4.97;3.20;;;11.80;98.00;;;;;;5015765;28;20518;-63
2023/05/14 01:56:25;;;;;;;6.37;3.60;;;11.70;98.00;;;;;;5033240;28;20451;-63
2023/05/14 01:58:54;;;;;;;5.83;3.17;;;11.70;98.00;;;;;;5033409;28;20463;-62
2023/05/14 02:01:22;;;;;;;5.73;3.20;;;11.70;98.00;;;;;;5033233;28;20543;-63
2023/05/14 02:03:50;;;;;;;5.50;3.13;;;11.70;98.00;;;;;;5015971;28;20469;-63
2023/05/14 02:06:17;;;;;;;7.77;3.40;;;11.80;98.00;;;;;;5015730;28;20454;-64
2023/05/14 02:08:47;;;;;;;4.83;3.20;;;12.00;98.00;;;;;;5033282;28;20451;-62
2023/05/14 02:11:16;;;;;;;6.13;3.00;;;12.10;98.00;;;;;;5033340;28;20459;-64
2023/05/14 02:13:43;;;;;;;7.00;3.67;;;12.10;98.00;;;;;;5032816;28;21059;-63
2023/05/14 02:16:11;;;;;;;7.07;3.77;;;12.10;98.00;;;;;;5033269;28;20821;-62
2023/05/14 02:18:38;;;;;;;6.63;3.80;;;12.20;98.00;;;;;;5015953;28;20490;-62
2023/05/14 02:21:05;;;;;;;5.60;3.03;;;12.20;98.00;;;;;;5033175;28;20459;-63
2023/05/14 02:23:32;;;;;;;6.27;3.23;;;12.20;98.00;;;;;;5033392;28;20464;-63
2023/05/14 02:25:59;;;;;;;4.93;3.30;;;12.30;98.00;;;;;;5015562;28;20872;-64
2023/05/14 02:28:28;;;;;;;5.00;3.00;;;12.50;98.00;;;;;;5033012;28;20456;-62
2023/05/14 02:30:59;;;;;;;5.47;3.73;;;12.60;98.00;;;;;;5032597;28;20453;-63
2023/05/14 02:33:26;;;;;;;5.13;3.13;;;12.40;98.00;;;;;;5015385;28;20972;-62
2023/05/14 02:35:53;;;;;;;6.33;3.10;;;12.30;98.00;;;;;;5032380;28;20459;-63
2023/05/14 02:38:20;;;;;;;9.87;3.30;;;12.20;98.00;;;;;;5015274;28;20484;-63
2023/05/14 02:40:47;;;;;;;6.70;3.50;;;12.10;98.00;;;;;;5032405;28;20464;-63
2023/05/14 02:43:14;;;;;;;7.50;3.60;;;12.00;98.00;;;;;;5015124;28;20462;-63
2023/05/14 02:45:43;;;;;;;6.83;3.53;;;12.00;98.00;;;;;;5032155;28;20483;-64
2023/05/14 02:48:11;;;;;;;5.30;3.40;;;11.80;98.00;;;;;;5032425;28;20939;-62
2023/05/14 02:50:39;;;;;;;5.77;3.40;;;11.90;98.00;;;;;;5032688;28;20456;-62
2023/05/14 02:53:06;;;;;;;6.40;3.70;;;12.00;98.00;;;;;;5032483;28;20521;-62
2023/05/14 02:55:34;;;;;;;6.60;3.73;;;11.90;98.00;;;;;;5032414;28;20965;-62
2023/05/14 02:58:01;;;;;;;8.17;3.80;;;11.80;98.00;;;;;;5032186;28;20500;-61
2023/05/14 03:00:28;;;;;;;7.93;3.50;;;11.80;98.00;;;;;;5032514;28;20478;-62
2023/05/14 03:02:56;;;;;;;5.10;2.60;;;11.90;98.00;;;;;;5015019;28;20941;-62
2023/05/14 03:05:23;;;;;;;6.13;3.50;;;11.90;98.00;;;;;;5032294;28;20468;-64
2023/05/14 03:07:52;;;;;;;5.63;3.30;;;12.00;98.00;;;;;;5014696;28;20459;-63
2023/05/14 03:10:19;;;;;;;6.40;3.40;;;12.10;98.00;;;;;;5032258;28;20464;-63
2023/05/14 03:12:46;;;;;;;5.70;3.17;;;12.20;98.00;;;;;;5032448;28;20464;-62
2023/05/14 03:15:13;;;;;;;7.33;3.60;;;12.20;98.00;;;;;;5032230;28;21014;-63
2023/05/14 03:17:40;;;;;;;8.13;3.87;;;12.10;98.00;;;;;;5032488;28;20495;-63
2023/05/14 03:20:10;;;;;;;4.90;3.07;;;12.10;98.00;;;;;;5032080;28;20457;-63
2023/05/14 03:22:37;;;;;;;6.30;3.43;;;12.10;98.00;;;;;;5032302;28;20461;-63
2023/05/14 03:25:05;;;;;;;10.47;3.90;;;12.30;98.00;;;;;;5031033;28;20817;-63
2023/05/14 03:27:33;;;;;;;6.37;3.67;;;12.40;98.00;;;;;;5032147;28;20469;-62
2023/05/14 03:30:00;;;;;;;6.50;3.40;;;12.60;98.00;;;;;;5031674;28;20452;-62
2023/05/14 03:32:27;;;;;;;7.63;4.10;;;12.60;98.00;;;;;;5031913;28;20483;-62
2023/05/14 03:34:55;;;;;;;5.33;3.30;;;12.60;98.00;;;;;;5031618;28;20830;-63
2023/05/14 03:37:24;;;;;;;5.77;3.70;;;12.50;98.00;;;;;;5031607;28;20489;-64
2023/05/14 03:39:51;;;;;;;6.63;3.90;;;12.50;98.00;;;;;;5031817;28;20467;-62
2023/05/14 03:42:18;;;;;;;6.27;3.03;;;12.50;98.00;;;;;;5031760;28;20492;-63
2023/05/14 03:44:45;;;;;;;11.83;3.83;;;12.40;98.00;;;;;;5031867;28;20456;-63
2023/05/14 03:47:12;;;;;;;7.70;3.20;;;12.30;98.00;;;;;;5013951;28;20461;-62
2023/05/14 03:49:42;;;;;;;6.40;3.50;;;12.20;98.00;;;;;;5031637;28;20460;-62
2023/05/14 03:52:09;;;;;;;7.60;3.77;;;12.30;98.00;;;;;;5031535;28;20452;-63
2023/05/14 03:54:37;;;;;;;4.77;2.97;;;12.20;98.00;;;;;;5031741;28;20539;-62
2023/05/14 03:57:05;;;;;;;10.27;3.50;;;12.20;98.00;;;;;;5031403;28;20455;-64
2023/05/14 03:59:32;;;;;;;9.37;3.77;;;12.10;98.00;;;;;;5031528;28;20462;-63
2023/05/14 04:01:59;;;;;;;7.37;3.50;;;12.10;98.00;;;;;;5031676;28;20945;-63
2023/05/14 04:04:26;;;;;;;6.90;3.83;;;12.00;98.00;;;;;;5031651;28;20477;-62
2023/05/14 04:06:55;;;;;;;7.80;3.73;;;12.10;98.00;;;;;;5031501;28;20467;-64
2023/05/14 04:09:22;;;;;;;7.77;3.70;;;12.10;98.00;;;;;;5014304;28;20455;-62
2023/05/14 04:11:51;;;;;;;5.80;3.60;;;12.20;98.00;;;;;;5031550;28;20452;-61
2023/05/14 04:14:18;;;;;;;6.03;3.33;;;12.10;98.00;;;;;;5031962;28;20542;-63
2023/05/14 04:16:45;;;;;;;5.60;3.93;;;12.10;98.00;;;;;;5031534;28;20463;-62
2023/05/14 04:19:12;;;;;;;8.87;3.73;;;12.30;98.00;;;;;;5031446;28;20485;-63
2023/05/14 04:21:39;;;;;;;5.13;3.40;;;12.40;98.00;;;;;;5013287;28;20508;-63
2023/05/14 04:24:07;;;;;;;6.87;3.50;;;12.50;98.00;;;;;;5031292;28;20947;-62
2023/05/14 04:26:34;;;;;;;5.00;3.23;;;12.60;98.00;;;;;;5013866;28;20458;-62
2023/05/14 04:29:06;;;;;;;5.70;3.30;;;12.50;98.00;;;;;;5031319;28;20545;-64
2023/05/14 04:31:33;;;;;;;6.67;3.80;;;12.50;98.00;;;;;;5031261;28;20467;-62
2023/05/14 04:34:00;;;;;;;4.63;2.90;;;12.50;98.00;;;;;;5031282;28;20530;-63
2023/05/14 04:36:27;;;;;;;5.70;3.40;;;12.50;98.00;;;;;;5032841;28;20469;-63
2023/05/14 04:38:54;;;;;;;6.30;3.17;;;12.50;98.00;;;;;;5034731;28;20493;-62
2023/05/14 04:41:21;;;;;;;11.70;3.50;;;12.60;98.00;;;;;;5034967;28;20934;-63
2023/05/14 04:43:50;;;;;;;8.20;3.83;;;12.80;98.00;;;;;;5034782;28;20464;-62
2023/05/14 04:46:19;;;;;;;8.97;4.00;;;12.70;98.00;;;;;;5052834;28;20543;-63
2023/05/14 04:48:47;;;;;;;5.83;3.53;;;12.60;98.00;;;;;;5054716;28;20495;-62
2023/05/14 04:51:14;;;;;;;7.07;3.80;;;12.70;98.00;;;;;;5054755;28;20453;-63
2023/05/14 04:53:41;;;;;;;5.50;3.40;;;12.70;98.00;;;;;;5054828;28;20463;-64
2023/05/14 04:56:08;;;;;;;6.17;3.80;;;12.60;98.00;;;;;;5054624;28;20457;-63
2023/05/14 04:58:37;;;;;;;8.23;3.83;;;12.60;98.00;;;;;;5054530;28;20486;-64
2023/05/14 05:01:06;;;;;;;6.50;3.60;;;12.60;98.00;;;;;;5054478;28;20451;-62
2023/05/14 05:03:36;;;;;;;4.87;3.30;;;12.50;98.00;;;;;;5054648;28;20447;-62
2023/05/14 05:06:04;;;;;;;7.17;4.23;;;12.60;98.00;;;;;;5054435;28;20461;-63
2023/05/14 05:08:31;;;;;;;8.83;4.17;;;12.60;98.00;;;;;;5054748;28;20463;-62
2023/05/14 05:10:58;;;;;;;7.77;3.90;;;12.60;98.00;;;;;;5054600;28;20828;-62
2023/05/14 05:13:25;;;;;;;10.20;4.77;;;12.60;98.00;;;;;;5054318;28;20462;-61
2023/05/14 05:15:52;;;;;;;9.50;4.77;;;12.70;98.00;;;;;;5053797;28;20456;-63
2023/05/14 05:18:20;;;;;;;5.70;3.00;;;12.80;98.00;;;;;;5053607;28;20486;-64
2023/05/14 05:20:49;;;;;;;6.67;3.50;;;13.00;98.00;;;;;;5036042;28;20457;-62
2023/05/14 05:23:16;;;;;;;6.73;3.70;;;13.10;98.00;;;;;;5053684;28;20995;-62
2023/05/14 05:25:43;;;;;;;5.90;3.83;;;13.00;98.00;;;;;;5053702;28;20462;-62
2023/05/14 05:28:10;;;;;;;7.20;3.70;;;13.00;98.00;;;;;;5053944;28;20452;-62
2023/05/14 05:30:37;;;;;;;5.80;3.50;;;13.10;98.00;;;;;;5053841;28;20455;-63
2023/05/14 05:33:06;;;;;;;8.83;4.07;;;13.20;98.00;;;;;;5053821;28;20461;-62
2023/05/14 05:35:33;;;;;;;5.20;3.30;;;13.20;98.00;;;;;;5036123;28;20472;-62
2023/05/14 05:38:01;;;;;;;7.23;3.40;;;13.10;98.00;;;;;;5053682;28;20473;-64
2023/05/14 05:40:29;;;;;;;6.83;3.57;;;12.90;98.00;;;;;;5053661;28;20469;-63
2023/05/14 05:42:56;;;;;;;7.47;3.43;;;12.80;98.00;;;;;;5053620;28;20463;-62
2023/05/14 05:45:23;;;;;;;7.27;3.80;;;13.00;98.00;;;;;;5053728;28;20826;-64
2023/05/14 05:47:50;;;;;;;8.40;4.00;;;13.10;98.00;;;;;;5052649;28;20459;-62
2023/05/14 05:50:18;;;;;;;6.30;3.47;;;13.10;98.00;;;;;;5053722;28;20455;-63
2023/05/14 05:52:46;;;;;;;8.90;4.00;;;13.00;98.00;;;;;;5053526;28;20480;-63
2023/05/14 05:55:14;;;;;;;8.10;4.30;;;13.10;98.00;;;;;;5053649;28;20465;-62
2023/05/14 05:57:41;;;;;;;7.00;3.70;;;13.10;98.00;;;;;;5053439;28;20455;-62
2023/05/14 06:00:13;;;;;;;7.43;3.70;;;13.10;98.00;;;;;;5053673;28;20462;-63
2023/05/14 06:02:40;;;;;;;5.63;3.57;;;13.10;98.00;;;;;;5053713;28;20467;-60
2023/05/14 06:05:09;;;;;;;11.13;4.77;;;13.00;98.00;;;;;;5035634;28;20446;-62
2023/05/14 06:07:36;;;;;;;7.30;4.03;;;13.00;98.00;;;;;;5053064;28;20459;-60
2023/05/14 06:10:05;;;;;;;9.07;4.03;;;13.10;98.00;;;;;;5053148;28;20460;-59
2023/05/14 06:12:33;;;;;;;8.17;4.40;;;13.20;98.00;;;;;;5053004;28;20956;-60
2023/05/14 06:15:01;;;;;;;12.10;4.83;;;13.30;98.00;;;;;;5052999;28;20459;-61
2023/05/14 06:17:28;;;;;;;8.10;3.97;;;13.40;98.00;;;;;;5052961;28;20983;-61
2023/05/14 06:19:55;;;;;;;7.87;3.87;;;13.40;98.00;;;;;;5052837;28;20986;-60
2023/05/14 06:22:22;;;;;;;11.47;3.90;;;13.40;98.00;;;;;;5052966;28;20958;-60
2023/05/14 06:24:49;;;;;;;6.33;3.70;;;13.40;98.00;;;;;;5052931;28;20459;-60
2023/05/14 06:27:17;;;;;;;8.43;3.90;;;13.60;98.00;;;;;;5035435;28;20863;-60
2023/05/14 06:29:45;;;;;;;8.07;4.13;;;13.70;98.00;;;;;;5052802;28;20801;-61
2023/05/14 06:32:14;;;;;;;8.40;4.47;;;13.70;98.00;;;;;;5052662;28;20460;-60
2023/05/14 06:34:41;;;;;;;10.13;4.40;;;13.80;98.00;;;;;;5052644;28;20455;-60
2023/05/14 06:37:08;;;;;;;11.43;4.57;;;13.90;98.00;;;;;;5052760;28;20470;-60
2023/05/14 06:39:36;;;;;;;10.00;4.83;;;14.00;98.00;;;;;;5052428;28;20558;-60
2023/05/14 06:42:03;;;;;;;8.00;4.23;;;14.10;98.00;;;;;;5034996;28;20458;-62
2023/05/14 06:44:30;;;;;;;9.50;4.17;;;14.00;98.00;;;;;;5052676;28;20545;-60
2023/05/14 06:46:59;;;;;;;7.53;4.13;;;14.10;98.00;;;;;;5035000;28;20459;-60
2023/05/14 06:49:26;;;;;;;7.70;4.23;;;14.20;98.00;;;;;;5052782;28;20486;-60
2023/05/14 06:51:53;;;;;;;7.13;3.97;;;14.30;98.00;;;;;;5052618;28;20513;-62
2023/05/14 06:54:20;;;;;;;7.13;3.80;;;14.30;98.00;;;;;;5052816;28;20455;-60
2023/05/14 06:56:47;;;;;;;7.60;4.00;;;14.30;98.00;;;;;;5034762;28;20589;-62
2023/05/14 06:59:17;;;;;;;10.17;4.63;;;14.40;98.00;;;;;;5052066;28;20484;-60
2023/05/14 07:01:44;;;;;;;9.30;4.53;;;14.40;98.00;;;;;;5052373;28;20479;-60
2023/05/14 07:04:13;;;;;;;8.73;4.07;;;14.40;98.00;;;;;;5034578;28;20507;-62
2023/05/14 07:06:40;;;;;;;8.23;4.30;;;14.50;98.00;;;;;;5052140;28;20471;-61
2023/05/14 07:09:07;;;;;;;7.17;3.90;;;14.50;98.00;;;;;;5051974;28;20464;-60
2023/05/14 07:11:34;;;;;;;6.57;4.00;;;14.60;98.00;;;;;;5052127;28;20868;-61
2023/05/14 07:14:02;;;;;;;16.30;4.70;;;14.80;98.00;;;;;;5051792;28;20457;-61
2023/05/14 07:16:29;;;;;;;7.23;4.20;;;14.80;98.00;;;;;;5052059;28;20452;-59
2023/05/14 07:18:56;;;;;;;8.13;4.40;;;14.80;98.00;;;;;;5051825;28;20496;-62
2023/05/14 07:21:25;;;;;;;7.70;3.90;;;14.80;98.00;;;;;;5051949;28;20531;-59
2023/05/14 07:23:52;;;;;;;8.20;3.97;;;14.80;98.00;;;;;;5051531;28;20511;-59
2023/05/14 07:26:20;;;;;;;7.67;4.03;;;14.80;98.00;;;;;;5034237;28;20970;-60
2023/05/14 07:28:47;;;;;;;10.73;4.47;;;14.50;98.00;;;;;;5051755;28;20492;-60
2023/05/14 07:31:14;;;;;;;9.93;4.37;;;14.30;98.00;;;;;;5051799;28;20464;-57
2023/05/14 07:33:41;;;;;;;7.80;4.37;;;14.20;98.00;;;;;;5051913;28;20938;-60
2023/05/14 07:36:08;;;;;;;7.77;3.97;;;14.10;98.00;;;;;;5034201;28;20805;-57
2023/05/14 07:38:40;;;;;;;8.50;3.97;;;14.20;98.00;;;;;;5051674;28;20485;-61
2023/05/14 07:41:07;;;;;;;9.00;4.53;;;14.10;98.00;;;;;;5051749;28;20471;-61
2023/05/14 07:43:34;;;;;;;8.30;4.63;;;14.20;98.00;;;;;;5051801;28;20461;-60
2023/05/14 07:46:01;;;;;;;9.40;4.57;;;14.30;98.00;;;;;;5051664;28;20458;-61
2023/05/14 07:48:28;;;;;;;8.17;4.50;;;14.40;98.00;;;;;;5051930;28;20479;-60
2023/05/14 07:51:02;;;;;;;8.07;4.10;;;14.70;98.00;;;;;;5034269;28;20476;-62
2023/05/14 07:53:29;;;;;;;12.70;5.10;;;14.80;98.00;;;;;;5051814;28;20507;-60
2023/05/14 07:55:58;;;;;;;9.63;4.83;;;14.90;98.00;;;;;;5034225;28;20495;-60
2023/05/14 07:58:28;;;;;;;10.27;5.00;;;14.90;98.00;;;;;;5033735;28;20477;-61
2023/05/14 08:00:58;;;;;;;9.97;4.80;;;15.20;98.00;;;;;;5051440;28;20480;-62
2023/05/14 08:03:25;;;;;;;6.57;3.77;;;15.30;98.00;;;;;;5239850;22;20415;-60
2023/05/14 08:05:52;;;;;;;8.87;4.27;;;15.40;98.00;;;;;;5017877;28;20953;-60
2023/05/14 08:08:19;;;;;;;9.40;4.70;;;15.50;98.00;;;;;;5050884;28;20537;-60
2023/05/14 08:10:46;;;;;;;8.57;4.30;;;15.50;98.00;;;;;;5051443;28;20803;-61
2023/05/14 08:13:14;;;;;;;9.93;4.33;;;15.60;98.00;;;;;;5054905;28;20652;-59
2023/05/14 08:15:41;;;;;;;8.40;4.40;;;15.70;98.00;;;;;;5054812;28;20469;-61
2023/05/14 08:18:08;;;;;;;9.63;4.60;;;15.80;98.00;;;;;;5054915;28;20456;-60
2023/05/14 08:20:38;;;;;;;8.23;4.43;;;16.00;98.00;;;;;;5054413;28;20500;-61
2023/05/14 08:23:06;;;;;;;10.90;5.10;;;16.20;98.00;;;;;;5054566;28;20552;-61
2023/05/14 08:25:33;;;;;;;12.13;5.27;;;16.40;98.00;;;;;;5036921;28;20495;-62
2023/05/14 08:28:01;;;;;;;8.43;4.23;;;16.40;98.00;;;;;;5054202;28;20475;-63
2023/05/14 08:30:29;;;;;;;8.80;4.87;;;16.50;98.00;;;;;;5054451;28;20457;-61
2023/05/14 08:32:57;;;;;;;10.10;4.50;;;16.60;98.00;;;;;;5054234;28;20449;-61
2023/05/14 08:35:24;;;;;;;10.50;5.03;;;16.60;98.00;;;;;;5054593;28;20956;-61
2023/05/14 08:37:51;;;;;;;8.77;4.83;;;16.70;98.00;;;;;;5054195;28;20454;-60
2023/05/14 08:40:18;;;;;;;9.73;4.70;;;16.70;98.00;;;;;;5054469;28;20525;-60
2023/05/14 08:42:47;;;;;;;9.23;4.60;;;16.80;98.00;;;;;;5037315;28;20456;-62
2023/05/14 08:45:19;;;;;;;7.30;3.87;;;16.80;98.00;;;;;;5054069;28;20472;-61
2023/05/14 08:47:49;;;;;;;8.30;3.93;;;16.80;98.00;;;;;;5054010;28;20454;-61
2023/05/14 08:50:18;;;;;;;9.17;4.30;;;16.90;98.00;;;;;;5054484;28;20512;-61
2023/05/14 08:52:46;;;;;;;5.93;3.63;;;17.00;98.00;;;;;;5054115;28;20462;-61
2023/05/14 08:55:14;;;;;;;8.73;4.30;;;17.00;98.00;;;;;;5054099;28;20480;-63
2023/05/14 08:57:41;;;;;;;8.30;4.63;;;17.00;98.00;;;;;;5054239;28;20450;-62
2023/05/14 09:00:15;;;;;;;8.03;4.03;;;17.00;98.00;;;;;;5053776;28;20512;-61
2023/05/14 09:02:44;;;;;;;7.83;3.80;;;17.10;98.00;;;;;;5054460;28;20458;-61
2023/05/14 09:05:12;;;;;;;7.43;4.30;;;17.20;98.00;;;;;;5054329;28;20516;-61
2023/05/14 09:07:40;;;;;;;9.53;4.40;;;17.20;98.00;;;;;;5054022;28;20461;-64
2023/05/14 09:10:08;;;;;;;8.10;3.93;;;17.30;98.00;;;;;;5053673;28;20449;-62
2023/05/14 09:12:36;;;;;;;7.47;4.20;;;17.40;98.00;;;;;;5053556;28;20531;-64
2023/05/14 09:15:03;;;;;;;9.03;5.10;;;17.40;98.00;;;;;;5035841;28;20972;-64
2023/05/14 09:17:30;;;;;;;8.10;4.60;;;17.40;98.00;;;;;;5039443;28;20462;-64
2023/05/14 09:19:58;;;;;;;8.20;4.30;;;17.40;98.00;;;;;;5015894;28;20486;-63
2023/05/14 09:22:31;;;;;;;8.67;4.30;;;17.40;98.00;;;;;;5032157;28;20454;-63
2023/05/14 09:25:05;;;;;;;8.00;4.30;;;17.30;98.00;;;;;;5033148;28;20525;-62
2023/05/14 09:27:33;;;;;;;6.60;3.80;;;17.40;98.00;;;;;;5033366;28;20482;-64
2023/05/14 09:30:09;;;;;;;7.67;3.80;;;17.40;98.00;;;;;;5032916;28;20828;-62
2023/05/14 09:32:42;;;;;;;8.20;3.90;;;17.60;98.00;;;;;;5033004;28;20534;-63
2023/05/14 09:35:11;;;;;;;6.80;4.10;;;17.70;98.00;;;;;;5032898;28;20461;-62
2023/05/14 09:37:45;;;;;;;9.00;4.27;;;17.90;98.00;;;;;;5031186;28;20542;-63
2023/05/14 09:40:13;;;;;;;7.37;4.20;;;17.90;98.00;;;;;;4998619;28;20581;-63
2023/05/14 09:42:47;;;;;;;6.30;3.80;;;18.00;98.00;;;;;;5034251;28;20466;-62
2023/05/14 09:45:15;;;;;;;7.23;3.67;;;18.10;98.00;;;;;;5053361;28;20473;-62
2023/05/14 09:47:43;;;;;;;8.73;3.80;;;18.20;98.00;;;;;;5053196;28;20458;-62
2023/05/14 09:50:11;;;;;;;6.53;3.60;;;18.30;98.00;;;;;;5051941;28;20454;-62
2023/05/14 09:52:39;;;;;;;7.77;3.60;;;18.20;98.00;;;;;;5035112;28;20469;-62
2023/05/14 09:55:07;;;;;;;6.00;3.10;;;18.20;98.00;;;;;;5052756;28;20457;-62
2023/05/14 09:57:34;;;;;;;6.93;3.30;;;18.10;98.00;;;;;;5052750;28;20505;-62
2023/05/14 10:00:02;;;;;;;7.53;3.50;;;18.30;98.00;;;;;;5052841;28;20474;-62
2023/05/14 10:02:36;;;;;;;4.73;2.83;;;18.20;98.00;;;;;;5051633;28;20458;-66
2023/05/14 10:05:06;;;;;;;6.40;3.20;;;18.40;98.00;;;;;;5053084;28;20462;-59
2023/05/14 10:07:38;;;;;;;5.87;3.57;;;18.60;98.00;;;;;;5052776;28;20542;-62
2023/05/14 10:10:13;;;;;;;8.77;4.03;;;18.70;98.00;;;;;;5052418;28;20473;-62
2023/05/14 10:12:41;;;;;;;4.27;2.97;;;18.60;98.00;;;;;;5052266;28;20464;-63
2023/05/14 10:15:16;;;;;;;7.93;3.87;;;18.80;98.00;;;;;;5052196;28;20450;-62
2023/05/14 10:17:48;;;;;;;6.30;3.60;;;18.80;98.00;;;;;;5052285;28;20450;-61
2023/05/14 10:20:16;;;;;;;6.10;3.50;;;18.90;98.00;;;;;;5018685;28;20535;-62
2023/05/14 10:22:43;;;;;;;3.80;2.90;;;19.10;98.00;;;;;;5052577;28;20529;-62
2023/05/14 10:25:12;;;;;;;4.90;3.00;;;19.20;98.00;;;;;;5053067;28;21026;-61
2023/05/14 10:27:41;;;;;;;6.50;3.93;;;19.10;98.00;;;;;;5053024;28;20457;-63
2023/05/14 10:30:12;;;;;;;7.80;3.80;;;19.00;98.00;;;;;;5052593;28;20963;-61
2023/05/14 10:32:40;;;;;;;4.63;2.70;;;19.00;98.00;;;;;;5052197;28;20557;-62
2023/05/14 10:35:19;;;;;;;4.53;3.27;;;18.90;98.00;;;;;;5051711;28;20457;-61
2023/05/14 10:37:46;;;;;;;9.50;3.57;;;18.90;98.00;;;;;;5052105;28;20458;-61
2023/05/14 10:40:16;;;;;;;4.97;3.10;;;18.90;98.00;;;;;;5052163;28;20481;-62
2023/05/14 10:42:45;;;;;;;4.00;3.00;;;18.80;98.00;;;;;;5052211;28;20458;-63
2023/05/14 10:45:16;;;;;;;5.30;3.43;;;18.80;98.00;;;;;;5052158;28;20548;-62
2023/05/14 10:47:45;;;;;;;4.27;2.80;;;18.90;98.00;;;;;;5051806;28;20462;-61
2023/05/14 10:50:14;;;;;;;4.73;3.23;;;19.00;98.00;;;;;;5051941;28;20462;-62
2023/05/14 10:52:42;;;;;;;5.70;3.13;;;19.10;98.00;;;;;;5051851;28;20450;-61
2023/05/14 10:55:14;;;;;;;4.50;3.10;;;19.20;98.00;;;;;;5051797;28;20449;-61
2023/05/14 10:57:44;;;;;;;5.77;3.80;;;19.20;98.00;;;;;;5034664;28;20458;-61
2023/05/14 11:00:13;;;;;;;6.00;3.60;;;19.30;98.00;;;;;;5033735;28;20531;-61
2023/05/14 11:02:43;;;;;;;4.97;3.30;;;19.40;98.00;;;;;;5051613;28;20458;-61
2023/05/14 11:05:12;;;;;;;5.93;3.40;;;19.50;98.00;;;;;;5051439;28;20466;-61
2023/05/14 11:07:42;;;;;;;6.00;3.27;;;19.80;98.00;;;;;;5051551;28;20473;-61
2023/05/14 11:10:12;;;;;;;5.97;3.70;;;20.00;98.00;;;;;;5033686;28;20519;-61
2023/05/14 11:12:42;;;;;;;5.13;3.13;;;20.00;98.00;;;;;;5051454;28;20453;-62
2023/05/14 11:15:11;;;;;;;5.60;3.33;;;20.10;98.00;;;;;;5051712;28;20457;-61
2023/05/14 11:17:40;;;;;;;5.20;3.20;;;19.80;98.00;;;;;;5033785;28;20516;-61
2023/05/14 11:20:08;;;;;;;6.50;3.43;;;19.60;98.00;;;;;;5051275;28;21007;-62
2023/05/14 11:22:36;;;;;;;4.60;3.03;;;19.40;98.00;;;;;;5051250;28;20458;-61
2023/05/14 11:25:05;;;;;;;5.80;3.27;;;19.10;98.00;;;;;;5051220;28;20465;-62
2023/05/14 11:27:34;;;;;;;6.80;3.60;;;19.20;98.00;;;;;;5051272;28;20458;-61
2023/05/14 11:30:03;;;;;;;5.00;3.23;;;19.30;98.00;;;;;;5051340;28;20462;-62
2023/05/14 11:32:32;;;;;;;5.97;3.53;;;19.60;98.00;;;;;;5051331;28;20956;-61
2023/05/14 11:34:59;;;;;;;6.47;3.50;;;19.90;98.00;;;;;;5051386;28;20458;-62
2023/05/14 11:37:26;;;;;;;5.00;3.20;;;19.80;98.00;;;;;;5051219;28;20519;-61
2023/05/14 11:39:55;;;;;;;4.60;3.00;;;19.60;98.00;;;;;;5051040;28;20474;-62
2023/05/14 11:42:23;;;;;;;6.50;3.57;;;19.40;98.00;;;;;;5051072;28;20475;-61
2023/05/14 11:44:52;;;;;;;5.90;3.40;;;19.40;98.00;;;;;;5033064;28;20868;-61
2023/05/14 11:47:22;;;;;;;6.43;3.90;;;19.50;98.00;;;;;;5050652;28;20634;-61
2023/05/14 11:49:50;;;;;;;7.00;3.53;;;19.50;98.00;;;;;;5050798;28;20457;-60
2023/05/14 11:52:20;;;;;;;9.30;4.13;;;19.70;98.00;;;;;;5050640;28;20803;-60
2023/05/14 11:54:48;;;;;;;8.43;4.50;;;19.80;98.00;;;;;;5033362;28;20462;-60
2023/05/14 11:57:18;;;;;;;7.10;3.30;;;19.70;98.00;;;;;;5050818;28;20465;-59
2023/05/14 11:59:45;;;;;;;5.07;3.50;;;19.70;98.00;;;;;;5050927;28;20898;-59
2023/05/14 12:02:14;;;;;;;6.40;3.97;;;19.80;98.00;;;;;;5033139;28;20450;-61
2023/05/14 12:04:43;;;;;;;6.37;3.53;;;20.00;98.00;;;;;;5050769;28;21025;-60
2023/05/14 12:07:12;;;;;;;6.90;3.77;;;20.10;98.00;;;;;;5050557;28;20468;-61
2023/05/14 12:09:41;;;;;;;5.90;3.50;;;20.10;98.00;;;;;;5050671;28;20489;-60
2023/05/14 12:12:11;;;;;;;9.33;3.50;;;20.30;98.00;;;;;;5016934;28;20454;-59
2023/05/14 12:14:40;;;;;;;6.60;3.80;;;20.40;98.00;;;;;;5050925;28;20461;-60
2023/05/14 12:17:15;;;;;;;10.17;4.20;;;20.40;98.00;;;;;;5050733;28;20453;-60
2023/05/14 12:19:45;;;;;;;8.20;4.37;;;21.00;98.00;;;;;;5033185;28;20457;-60
2023/05/14 12:22:15;;;;;;;5.30;3.70;;;21.80;98.00;;;;;;5050722;28;20978;-59
2023/05/14 12:24:43;;;;;;;6.50;4.00;;;22.50;98.00;;;;;;5050735;28;20457;-60
2023/05/14 12:27:13;;;;;;;5.87;3.60;;;23.10;98.00;;;;;;5050947;28;20975;-62
2023/05/14 12:29:40;;;;;;;6.20;3.73;;;23.40;97.50;;;;;;5051256;28;20450;-60
2023/05/14 12:32:09;;;;;;;6.27;3.77;;;23.70;97.00;;;;;;5033135;28;20500;-62
2023/05/14 12:34:37;;;;;;;5.87;3.53;;;24.00;96.20;;;;;;5050739;28;20453;-60
2023/05/14 12:37:07;;;;;;;5.40;3.53;;;23.50;96.30;;;;;;5050457;28;20469;-60
2023/05/14 12:39:35;;;;;;;7.00;3.70;;;23.00;95.70;;;;;;5050527;28;20462;-60
2023/05/14 12:42:02;;;;;;;6.77;3.97;;;22.30;96.50;;;;;;5032829;28;20461;-60
2023/05/14 12:44:30;;;;;;;5.53;3.53;;;21.90;97.60;;;;;;5050489;28;20675;-60
2023/05/14 12:46:57;;;;;;;4.93;2.90;;;22.20;97.60;;;;;;5050259;28;20458;-60
2023/05/14 12:49:24;;;;;;;5.13;3.00;;;22.70;96.50;;;;;;5050497;28;20445;-61
2023/05/14 12:51:51;;;;;;;6.00;3.30;;;23.30;96.50;;;;;;5050330;28;20500;-61